sensor_id;sensor_type;location;lat;lon;timestamp;P1;durP1;ratioP1;P2;durP2;ratioP2
3700;SDS011;1866;48.374;10.766;2023-02-15T00:00:29;115.25;;;17.17;;
3700;SDS011;1866;48.374;10.766;2023-02-15T00:02:56;103.90;;;16.65;;
3700;SDS011;1866;48.374;10.766;2023-02-15T00:05:24;112.18;;;17.48;;
3700;SDS011;1866;48.374;10.766;2023-02-15T00:07:51;111.82;;;15.90;;
3700;SDS011;1866;48.374;10.766;2023-02-15T00:10:18;114.57;;;16.80;;
3700;SDS011;1866;48.374;10.766;2023-02-15T00:12:45;111.13;;;15.52;;
3700;SDS011;1866;48.374;10.766;2023-02-15T00:15:11;105.45;;;15.90;;
3700;SDS011;1866;48.374;10.766;2023-02-15T00:17:38;118.57;;;15.63;;
3700;SDS011;1866;48.374;10.766;2023-02-15T00:20:05;106.22;;;15.95;;
3700;SDS011;1866;48.374;10.766;2023-02-15T00:22:35;106.70;;;16.58;;
3700;SDS011;1866;48.374;10.766;2023-02-15T00:25:02;102.70;;;16.38;;
3700;SDS011;1866;48.374;10.766;2023-02-15T00:27:29;110.13;;;17.33;;
3700;SDS011;1866;48.374;10.766;2023-02-15T00:29:56;110.65;;;17.15;;
3700;SDS011;1866;48.374;10.766;2023-02-15T00:32:23;107.63;;;16.95;;
3700;SDS011;1866;48.374;10.766;2023-02-15T00:34:50;108.63;;;17.00;;
3700;SDS011;1866;48.374;10.766;2023-02-15T00:37:17;108.32;;;17.00;;
3700;SDS011;1866;48.374;10.766;2023-02-15T00:39:45;104.32;;;16.52;;
3700;SDS011;1866;48.374;10.766;2023-02-15T00:42:12;102.43;;;16.25;;
3700;SDS011;1866;48.374;10.766;2023-02-15T00:44:38;109.88;;;16.90;;
3700;SDS011;1866;48.374;10.766;2023-02-15T00:47:05;109.03;;;17.35;;
3700;SDS011;1866;48.374;10.766;2023-02-15T00:49:32;108.55;;;17.83;;
3700;SDS011;1866;48.374;10.766;2023-02-15T00:51:59;106.03;;;16.90;;
3700;SDS011;1866;48.374;10.766;2023-02-15T00:54:25;105.53;;;17.13;;
3700;SDS011;1866;48.374;10.766;2023-02-15T00:56:54;104.60;;;17.48;;
3700;SDS011;1866;48.374;10.766;2023-02-15T00:59:21;103.00;;;17.08;;
3700;SDS011;1866;48.374;10.766;2023-02-15T01:01:48;103.60;;;17.13;;
3700;SDS011;1866;48.374;10.766;2023-02-15T01:04:14;106.05;;;17.85;;
3700;SDS011;1866;48.374;10.766;2023-02-15T01:06:41;103.10;;;16.85;;
3700;SDS011;1866;48.374;10.766;2023-02-15T01:09:08;106.03;;;16.85;;
3700;SDS011;1866;48.374;10.766;2023-02-15T01:11:35;103.38;;;16.42;;
3700;SDS011;1866;48.374;10.766;2023-02-15T01:14:03;106.40;;;16.95;;
3700;SDS011;1866;48.374;10.766;2023-02-15T01:16:30;103.47;;;17.35;;
3700;SDS011;1866;48.374;10.766;2023-02-15T01:18:57;103.68;;;16.20;;
3700;SDS011;1866;48.374;10.766;2023-02-15T01:21:24;103.40;;;16.02;;
3700;SDS011;1866;48.374;10.766;2023-02-15T01:23:51;104.03;;;16.25;;
3700;SDS011;1866;48.374;10.766;2023-02-15T01:26:19;103.70;;;16.45;;
3700;SDS011;1866;48.374;10.766;2023-02-15T01:28:45;107.22;;;17.20;;
3700;SDS011;1866;48.374;10.766;2023-02-15T01:31:15;105.03;;;16.23;;
3700;SDS011;1866;48.374;10.766;2023-02-15T01:33:44;104.53;;;14.95;;
3700;SDS011;1866;48.374;10.766;2023-02-15T01:36:12;104.38;;;15.95;;
3700;SDS011;1866;48.374;10.766;2023-02-15T01:38:39;114.82;;;16.38;;
3700;SDS011;1866;48.374;10.766;2023-02-15T01:41:06;108.63;;;15.75;;
3700;SDS011;1866;48.374;10.766;2023-02-15T01:43:48;103.82;;;15.10;;
3700;SDS011;1866;48.374;10.766;2023-02-15T01:46:18;100.85;;;14.63;;
3700;SDS011;1866;48.374;10.766;2023-02-15T01:48:50;107.97;;;15.48;;
3700;SDS011;1866;48.374;10.766;2023-02-15T01:51:26;109.68;;;15.10;;
3700;SDS011;1866;48.374;10.766;2023-02-15T01:53:57;104.03;;;14.98;;
3700;SDS011;1866;48.374;10.766;2023-02-15T01:56:28;104.60;;;15.40;;
3700;SDS011;1866;48.374;10.766;2023-02-15T01:58:58;103.60;;;14.70;;
3700;SDS011;1866;48.374;10.766;2023-02-15T02:01:30;102.32;;;14.85;;
3700;SDS011;1866;48.374;10.766;2023-02-15T02:03:58;101.80;;;14.98;;
3700;SDS011;1866;48.374;10.766;2023-02-15T02:06:32;106.18;;;16.63;;
3700;SDS011;1866;48.374;10.766;2023-02-15T02:08:59;103.15;;;14.40;;
3700;SDS011;1866;48.374;10.766;2023-02-15T02:11:26;103.53;;;14.73;;
3700;SDS011;1866;48.374;10.766;2023-02-15T02:13:54;102.47;;;14.00;;
3700;SDS011;1866;48.374;10.766;2023-02-15T02:16:23;115.63;;;15.57;;
3700;SDS011;1866;48.374;10.766;2023-02-15T02:18:58;111.30;;;14.13;;
3700;SDS011;1866;48.374;10.766;2023-02-15T02:21:55;100.97;;;13.98;;
3700;SDS011;1866;48.374;10.766;2023-02-15T02:24:55;117.60;;;14.70;;
3700;SDS011;1866;48.374;10.766;2023-02-15T02:27:47;100.45;;;14.35;;
3700;SDS011;1866;48.374;10.766;2023-02-15T02:30:35;101.55;;;14.68;;
3700;SDS011;1866;48.374;10.766;2023-02-15T02:33:20;99.82;;;14.95;;
3700;SDS011;1866;48.374;10.766;2023-02-15T02:36:00;104.88;;;16.15;;
3700;SDS011;1866;48.374;10.766;2023-02-15T02:38:38;107.82;;;16.45;;
3700;SDS011;1866;48.374;10.766;2023-02-15T02:41:12;105.97;;;15.30;;
3700;SDS011;1866;48.374;10.766;2023-02-15T02:43:48;102.07;;;15.70;;
3700;SDS011;1866;48.374;10.766;2023-02-15T02:46:20;99.32;;;14.35;;
3700;SDS011;1866;48.374;10.766;2023-02-15T02:48:53;103.13;;;16.08;;
3700;SDS011;1866;48.374;10.766;2023-02-15T02:51:20;103.03;;;15.98;;
3700;SDS011;1866;48.374;10.766;2023-02-15T02:53:48;112.22;;;16.63;;
3700;SDS011;1866;48.374;10.766;2023-02-15T02:56:18;99.28;;;14.90;;
3700;SDS011;1866;48.374;10.766;2023-02-15T02:58:50;103.03;;;14.98;;
3700;SDS011;1866;48.374;10.766;2023-02-15T03:01:22;110.95;;;15.60;;
3700;SDS011;1866;48.374;10.766;2023-02-15T03:03:54;100.90;;;14.43;;
3700;SDS011;1866;48.374;10.766;2023-02-15T03:06:25;100.25;;;14.98;;
3700;SDS011;1866;48.374;10.766;2023-02-15T03:08:58;104.90;;;15.63;;
3700;SDS011;1866;48.374;10.766;2023-02-15T03:11:29;130.38;;;17.10;;
3700;SDS011;1866;48.374;10.766;2023-02-15T03:13:56;99.80;;;15.30;;
3700;SDS011;1866;48.374;10.766;2023-02-15T03:16:24;104.65;;;16.25;;
3700;SDS011;1866;48.374;10.766;2023-02-15T03:18:51;105.05;;;16.75;;
3700;SDS011;1866;48.374;10.766;2023-02-15T03:21:27;103.57;;;16.50;;
3700;SDS011;1866;48.374;10.766;2023-02-15T03:23:59;104.82;;;17.17;;
3700;SDS011;1866;48.374;10.766;2023-02-15T03:26:32;104.00;;;16.55;;
3700;SDS011;1866;48.374;10.766;2023-02-15T03:29:01;101.00;;;16.13;;
3700;SDS011;1866;48.374;10.766;2023-02-15T03:31:31;101.40;;;16.13;;
3700;SDS011;1866;48.374;10.766;2023-02-15T03:34:03;111.93;;;16.50;;
3700;SDS011;1866;48.374;10.766;2023-02-15T03:36:33;102.93;;;15.88;;
3700;SDS011;1866;48.374;10.766;2023-02-15T03:39:10;104.03;;;16.33;;
3700;SDS011;1866;48.374;10.766;2023-02-15T03:41:44;101.05;;;16.00;;
3700;SDS011;1866;48.374;10.766;2023-02-15T03:44:16;105.43;;;16.30;;
3700;SDS011;1866;48.374;10.766;2023-02-15T03:46:51;102.38;;;15.77;;
3700;SDS011;1866;48.374;10.766;2023-02-15T03:49:26;102.70;;;15.43;;
3700;SDS011;1866;48.374;10.766;2023-02-15T03:51:59;102.80;;;15.75;;
3700;SDS011;1866;48.374;10.766;2023-02-15T03:54:29;108.18;;;16.45;;
3700;SDS011;1866;48.374;10.766;2023-02-15T03:57:15;108.35;;;16.55;;
3700;SDS011;1866;48.374;10.766;2023-02-15T04:00:10;112.85;;;16.88;;
3700;SDS011;1866;48.374;10.766;2023-02-15T04:03:08;109.57;;;15.90;;
3700;SDS011;1866;48.374;10.766;2023-02-15T04:05:44;102.90;;;14.23;;
3700;SDS011;1866;48.374;10.766;2023-02-15T04:08:12;106.05;;;15.95;;
3700;SDS011;1866;48.374;10.766;2023-02-15T04:10:39;103.00;;;15.32;;
3700;SDS011;1866;48.374;10.766;2023-02-15T04:13:22;102.57;;;15.05;;
3700;SDS011;1866;48.374;10.766;2023-02-15T04:15:50;102.53;;;15.27;;
3700;SDS011;1866;48.374;10.766;2023-02-15T04:18:30;110.13;;;16.05;;
3700;SDS011;1866;48.374;10.766;2023-02-15T04:21:16;105.35;;;16.88;;
3700;SDS011;1866;48.374;10.766;2023-02-15T04:24:01;106.72;;;15.45;;
3700;SDS011;1866;48.374;10.766;2023-02-15T04:26:45;102.43;;;15.02;;
3700;SDS011;1866;48.374;10.766;2023-02-15T04:29:13;104.07;;;15.45;;
3700;SDS011;1866;48.374;10.766;2023-02-15T04:34:25;103.70;;;15.73;;
3700;SDS011;1866;48.374;10.766;2023-02-15T04:36:55;103.63;;;16.13;;
3700;SDS011;1866;48.374;10.766;2023-02-15T04:39:21;100.68;;;14.98;;
3700;SDS011;1866;48.374;10.766;2023-02-15T04:41:48;100.82;;;15.20;;
3700;SDS011;1866;48.374;10.766;2023-02-15T04:44:15;109.32;;;16.70;;
3700;SDS011;1866;48.374;10.766;2023-02-15T04:46:42;101.35;;;15.75;;
3700;SDS011;1866;48.374;10.766;2023-02-15T04:49:09;103.30;;;15.90;;
3700;SDS011;1866;48.374;10.766;2023-02-15T04:51:36;104.78;;;16.15;;
3700;SDS011;1866;48.374;10.766;2023-02-15T04:54:04;106.63;;;15.30;;
3700;SDS011;1866;48.374;10.766;2023-02-15T04:56:32;106.53;;;15.95;;
3700;SDS011;1866;48.374;10.766;2023-02-15T04:59:00;105.03;;;15.20;;
3700;SDS011;1866;48.374;10.766;2023-02-15T05:01:29;110.57;;;15.35;;
3700;SDS011;1866;48.374;10.766;2023-02-15T05:03:56;103.85;;;15.40;;
3700;SDS011;1866;48.374;10.766;2023-02-15T05:06:23;102.28;;;15.90;;
3700;SDS011;1866;48.374;10.766;2023-02-15T05:08:51;102.10;;;16.27;;
3700;SDS011;1866;48.374;10.766;2023-02-15T05:11:19;102.68;;;15.60;;
3700;SDS011;1866;48.374;10.766;2023-02-15T05:13:46;101.97;;;15.98;;
3700;SDS011;1866;48.374;10.766;2023-02-15T05:16:13;100.68;;;15.27;;
3700;SDS011;1866;48.374;10.766;2023-02-15T05:18:39;101.95;;;15.30;;
3700;SDS011;1866;48.374;10.766;2023-02-15T05:21:06;107.10;;;16.10;;
3700;SDS011;1866;48.374;10.766;2023-02-15T05:23:33;103.90;;;15.80;;
3700;SDS011;1866;48.374;10.766;2023-02-15T05:26:00;107.20;;;16.73;;
3700;SDS011;1866;48.374;10.766;2023-02-15T05:28:46;112.38;;;16.30;;
3700;SDS011;1866;48.374;10.766;2023-02-15T05:31:13;105.97;;;16.55;;
3700;SDS011;1866;48.374;10.766;2023-02-15T05:33:42;103.53;;;16.10;;
3700;SDS011;1866;48.374;10.766;2023-02-15T05:36:09;102.65;;;15.80;;
3700;SDS011;1866;48.374;10.766;2023-02-15T05:38:37;102.32;;;15.52;;
3700;SDS011;1866;48.374;10.766;2023-02-15T05:41:04;106.28;;;17.00;;
3700;SDS011;1866;48.374;10.766;2023-02-15T05:43:32;103.45;;;16.20;;
3700;SDS011;1866;48.374;10.766;2023-02-15T05:46:01;104.18;;;17.08;;
3700;SDS011;1866;48.374;10.766;2023-02-15T05:48:29;111.70;;;15.90;;
3700;SDS011;1866;48.374;10.766;2023-02-15T05:50:57;112.20;;;16.98;;
3700;SDS011;1866;48.374;10.766;2023-02-15T05:53:25;109.88;;;17.40;;
3700;SDS011;1866;48.374;10.766;2023-02-15T05:55:53;106.70;;;16.55;;
3700;SDS011;1866;48.374;10.766;2023-02-15T05:58:23;103.82;;;16.55;;
3700;SDS011;1866;48.374;10.766;2023-02-15T06:00:51;108.60;;;16.70;;
3700;SDS011;1866;48.374;10.766;2023-02-15T06:03:20;102.15;;;16.30;;
3700;SDS011;1866;48.374;10.766;2023-02-15T06:05:48;104.00;;;17.02;;
3700;SDS011;1866;48.374;10.766;2023-02-15T06:08:15;101.32;;;15.85;;
3700;SDS011;1866;48.374;10.766;2023-02-15T06:10:42;105.57;;;16.27;;
3700;SDS011;1866;48.374;10.766;2023-02-15T06:13:10;107.80;;;16.05;;
3700;SDS011;1866;48.374;10.766;2023-02-15T06:15:36;105.47;;;17.10;;
3700;SDS011;1866;48.374;10.766;2023-02-15T06:18:03;104.88;;;16.65;;
3700;SDS011;1866;48.374;10.766;2023-02-15T06:20:32;101.65;;;15.68;;
3700;SDS011;1866;48.374;10.766;2023-02-15T06:22:59;105.47;;;16.42;;
3700;SDS011;1866;48.374;10.766;2023-02-15T06:25:26;106.68;;;17.17;;
3700;SDS011;1866;48.374;10.766;2023-02-15T06:27:54;106.80;;;16.45;;
3700;SDS011;1866;48.374;10.766;2023-02-15T06:30:21;105.85;;;16.02;;
3700;SDS011;1866;48.374;10.766;2023-02-15T06:32:47;105.47;;;17.17;;
3700;SDS011;1866;48.374;10.766;2023-02-15T06:35:14;109.70;;;17.92;;
3700;SDS011;1866;48.374;10.766;2023-02-15T06:37:43;116.25;;;22.40;;
3700;SDS011;1866;48.374;10.766;2023-02-15T06:40:12;104.75;;;15.82;;
3700;SDS011;1866;48.374;10.766;2023-02-15T06:42:39;111.57;;;18.92;;
3700;SDS011;1866;48.374;10.766;2023-02-15T06:45:09;102.05;;;14.82;;
3700;SDS011;1866;48.374;10.766;2023-02-15T06:47:41;102.15;;;14.40;;
3700;SDS011;1866;48.374;10.766;2023-02-15T06:50:09;107.32;;;15.63;;
3700;SDS011;1866;48.374;10.766;2023-02-15T06:52:38;103.53;;;14.82;;
3700;SDS011;1866;48.374;10.766;2023-02-15T06:55:06;101.65;;;14.95;;
3700;SDS011;1866;48.374;10.766;2023-02-15T06:57:33;104.97;;;16.10;;
3700;SDS011;1866;48.374;10.766;2023-02-15T07:00:00;103.30;;;15.85;;
3700;SDS011;1866;48.374;10.766;2023-02-15T07:02:29;114.25;;;16.50;;
3700;SDS011;1866;48.374;10.766;2023-02-15T07:04:56;104.63;;;16.05;;
3700;SDS011;1866;48.374;10.766;2023-02-15T07:07:23;108.05;;;16.52;;
3700;SDS011;1866;48.374;10.766;2023-02-15T07:09:51;106.97;;;15.63;;
3700;SDS011;1866;48.374;10.766;2023-02-15T07:12:19;111.40;;;16.13;;
3700;SDS011;1866;48.374;10.766;2023-02-15T07:15:04;105.78;;;16.20;;
3700;SDS011;1866;48.374;10.766;2023-02-15T07:17:31;104.93;;;16.80;;
3700;SDS011;1866;48.374;10.766;2023-02-15T07:19:58;115.40;;;16.65;;
3700;SDS011;1866;48.374;10.766;2023-02-15T07:22:25;110.28;;;16.70;;
3700;SDS011;1866;48.374;10.766;2023-02-15T07:24:52;102.22;;;15.02;;
3700;SDS011;1866;48.374;10.766;2023-02-15T07:27:21;111.80;;;17.15;;
3700;SDS011;1866;48.374;10.766;2023-02-15T07:29:48;106.30;;;15.77;;
3700;SDS011;1866;48.374;10.766;2023-02-15T07:32:15;104.20;;;15.25;;
3700;SDS011;1866;48.374;10.766;2023-02-15T07:34:41;105.78;;;14.85;;
3700;SDS011;1866;48.374;10.766;2023-02-15T07:37:08;106.00;;;16.33;;
3700;SDS011;1866;48.374;10.766;2023-02-15T07:39:35;105.15;;;16.88;;
3700;SDS011;1866;48.374;10.766;2023-02-15T07:42:02;101.22;;;15.70;;
3700;SDS011;1866;48.374;10.766;2023-02-15T07:44:30;105.82;;;16.00;;
3700;SDS011;1866;48.374;10.766;2023-02-15T07:46:57;102.85;;;15.82;;
3700;SDS011;1866;48.374;10.766;2023-02-15T07:49:24;111.95;;;17.70;;
3700;SDS011;1866;48.374;10.766;2023-02-15T07:51:53;103.25;;;15.00;;
3700;SDS011;1866;48.374;10.766;2023-02-15T07:54:20;102.47;;;15.20;;
3700;SDS011;1866;48.374;10.766;2023-02-15T07:56:47;107.10;;;15.40;;
3700;SDS011;1866;48.374;10.766;2023-02-15T07:59:14;112.32;;;16.75;;
3700;SDS011;1866;48.374;10.766;2023-02-15T08:01:42;106.72;;;15.85;;
3700;SDS011;1866;48.374;10.766;2023-02-15T08:04:09;105.75;;;14.48;;
3700;SDS011;1866;48.374;10.766;2023-02-15T08:06:45;101.82;;;15.05;;
3700;SDS011;1866;48.374;10.766;2023-02-15T08:09:12;111.20;;;14.65;;
3700;SDS011;1866;48.374;10.766;2023-02-15T08:11:40;105.03;;;15.25;;
3700;SDS011;1866;48.374;10.766;2023-02-15T08:14:08;113.90;;;15.85;;
3700;SDS011;1866;48.374;10.766;2023-02-15T08:16:37;110.05;;;14.77;;
3700;SDS011;1866;48.374;10.766;2023-02-15T08:19:07;107.22;;;15.48;;
3700;SDS011;1866;48.374;10.766;2023-02-15T08:21:36;103.85;;;14.70;;
3700;SDS011;1866;48.374;10.766;2023-02-15T08:24:06;105.00;;;15.38;;
3700;SDS011;1866;48.374;10.766;2023-02-15T08:26:34;104.30;;;15.25;;
3700;SDS011;1866;48.374;10.766;2023-02-15T08:29:02;101.88;;;15.00;;
3700;SDS011;1866;48.374;10.766;2023-02-15T08:31:30;104.80;;;15.70;;
3700;SDS011;1866;48.374;10.766;2023-02-15T08:33:57;106.88;;;15.20;;
3700;SDS011;1866;48.374;10.766;2023-02-15T08:36:26;102.25;;;14.63;;
3700;SDS011;1866;48.374;10.766;2023-02-15T08:38:54;104.88;;;15.07;;
3700;SDS011;1866;48.374;10.766;2023-02-15T08:41:24;103.25;;;14.77;;
3700;SDS011;1866;48.374;10.766;2023-02-15T08:43:54;110.93;;;15.38;;
3700;SDS011;1866;48.374;10.766;2023-02-15T08:46:24;100.93;;;13.80;;
3700;SDS011;1866;48.374;10.766;2023-02-15T08:48:52;102.10;;;14.65;;
3700;SDS011;1866;48.374;10.766;2023-02-15T08:51:21;100.68;;;13.45;;
3700;SDS011;1866;48.374;10.766;2023-02-15T08:53:53;108.05;;;15.45;;
3700;SDS011;1866;48.374;10.766;2023-02-15T08:56:25;105.38;;;14.57;;
3700;SDS011;1866;48.374;10.766;2023-02-15T08:58:54;104.07;;;15.43;;
3700;SDS011;1866;48.374;10.766;2023-02-15T09:01:23;106.13;;;14.95;;
3700;SDS011;1866;48.374;10.766;2023-02-15T09:03:51;103.10;;;14.95;;
3700;SDS011;1866;48.374;10.766;2023-02-15T09:06:22;105.95;;;15.10;;
3700;SDS011;1866;48.374;10.766;2023-02-15T09:08:49;104.07;;;13.68;;
3700;SDS011;1866;48.374;10.766;2023-02-15T09:11:18;103.35;;;14.30;;
3700;SDS011;1866;48.374;10.766;2023-02-15T09:13:49;105.63;;;14.85;;
3700;SDS011;1866;48.374;10.766;2023-02-15T09:16:17;101.68;;;12.45;;
3700;SDS011;1866;48.374;10.766;2023-02-15T09:18:44;103.40;;;13.73;;
3700;SDS011;1866;48.374;10.766;2023-02-15T09:21:12;100.80;;;12.70;;
3700;SDS011;1866;48.374;10.766;2023-02-15T09:23:41;102.72;;;12.45;;
3700;SDS011;1866;48.374;10.766;2023-02-15T09:26:10;101.35;;;13.02;;
3700;SDS011;1866;48.374;10.766;2023-02-15T09:28:40;101.90;;;13.70;;
3700;SDS011;1866;48.374;10.766;2023-02-15T09:31:08;102.20;;;12.48;;
3700;SDS011;1866;48.374;10.766;2023-02-15T09:33:36;100.68;;;12.77;;
3700;SDS011;1866;48.374;10.766;2023-02-15T09:36:05;101.05;;;14.10;;
3700;SDS011;1866;48.374;10.766;2023-02-15T09:38:40;103.68;;;14.02;;
3700;SDS011;1866;48.374;10.766;2023-02-15T09:41:11;102.32;;;13.32;;
3700;SDS011;1866;48.374;10.766;2023-02-15T09:43:57;103.38;;;12.50;;
3700;SDS011;1866;48.374;10.766;2023-02-15T09:46:37;101.60;;;11.82;;
3700;SDS011;1866;48.374;10.766;2023-02-15T09:49:16;102.50;;;13.45;;
3700;SDS011;1866;48.374;10.766;2023-02-15T09:54:45;101.07;;;11.20;;
3700;SDS011;1866;48.374;10.766;2023-02-15T09:57:27;101.30;;;12.00;;
3700;SDS011;1866;48.374;10.766;2023-02-15T10:00:06;103.25;;;12.32;;
3700;SDS011;1866;48.374;10.766;2023-02-15T10:02:47;100.20;;;11.93;;
3700;SDS011;1866;48.374;10.766;2023-02-15T10:05:34;98.70;;;11.50;;
3700;SDS011;1866;48.374;10.766;2023-02-15T10:08:13;101.22;;;12.88;;
3700;SDS011;1866;48.374;10.766;2023-02-15T10:10:57;103.78;;;12.15;;
3700;SDS011;1866;48.374;10.766;2023-02-15T10:13:47;100.22;;;12.25;;
3700;SDS011;1866;48.374;10.766;2023-02-15T10:16:26;106.78;;;12.50;;
3700;SDS011;1866;48.374;10.766;2023-02-15T10:19:02;99.07;;;11.10;;
3700;SDS011;1866;48.374;10.766;2023-02-15T10:21:38;102.72;;;12.82;;
3700;SDS011;1866;48.374;10.766;2023-02-15T10:24:16;103.23;;;12.00;;
3700;SDS011;1866;48.374;10.766;2023-02-15T10:27:04;99.70;;;11.20;;
3700;SDS011;1866;48.374;10.766;2023-02-15T10:29:36;103.10;;;11.87;;
3700;SDS011;1866;48.374;10.766;2023-02-15T10:32:08;103.70;;;12.13;;
3700;SDS011;1866;48.374;10.766;2023-02-15T10:34:46;100.13;;;11.90;;
3700;SDS011;1866;48.374;10.766;2023-02-15T10:37:21;102.10;;;11.73;;
3700;SDS011;1866;48.374;10.766;2023-02-15T10:40:08;101.13;;;10.93;;
3700;SDS011;1866;48.374;10.766;2023-02-15T10:42:44;102.27;;;11.00;;
3700;SDS011;1866;48.374;10.766;2023-02-15T10:45:23;100.23;;;10.07;;
3700;SDS011;1866;48.374;10.766;2023-02-15T10:47:59;99.10;;;10.67;;
3700;SDS011;1866;48.374;10.766;2023-02-15T10:50:45;100.70;;;11.60;;
3700;SDS011;1866;48.374;10.766;2023-02-15T10:53:24;99.30;;;10.63;;
3700;SDS011;1866;48.374;10.766;2023-02-15T10:56:03;103.20;;;12.20;;
3700;SDS011;1866;48.374;10.766;2023-02-15T10:58:40;100.10;;;11.93;;
3700;SDS011;1866;48.374;10.766;2023-02-15T11:01:18;103.10;;;11.90;;
3700;SDS011;1866;48.374;10.766;2023-02-15T11:06:57;103.80;;;12.57;;
3700;SDS011;1866;48.374;10.766;2023-02-15T11:09:29;118.27;;;11.17;;
3700;SDS011;1866;48.374;10.766;2023-02-15T11:12:07;102.90;;;11.43;;
3700;SDS011;1866;48.374;10.766;2023-02-15T11:14:38;103.40;;;11.97;;
3700;SDS011;1866;48.374;10.766;2023-02-15T11:17:10;107.33;;;13.37;;
3700;SDS011;1866;48.374;10.766;2023-02-15T11:19:43;102.27;;;10.60;;
3700;SDS011;1866;48.374;10.766;2023-02-15T11:22:17;105.07;;;11.23;;
3700;SDS011;1866;48.374;10.766;2023-02-15T11:24:44;102.07;;;10.83;;
3700;SDS011;1866;48.374;10.766;2023-02-15T11:27:16;102.97;;;11.00;;
3700;SDS011;1866;48.374;10.766;2023-02-15T11:29:50;108.33;;;12.63;;
3700;SDS011;1866;48.374;10.766;2023-02-15T11:32:21;107.00;;;11.60;;
3700;SDS011;1866;48.374;10.766;2023-02-15T11:34:53;101.10;;;10.47;;
3700;SDS011;1866;48.374;10.766;2023-02-15T11:37:24;104.20;;;11.43;;
3700;SDS011;1866;48.374;10.766;2023-02-15T11:39:57;106.90;;;12.27;;
3700;SDS011;1866;48.374;10.766;2023-02-15T11:42:26;104.60;;;11.83;;
3700;SDS011;1866;48.374;10.766;2023-02-15T11:44:57;107.13;;;12.20;;
3700;SDS011;1866;48.374;10.766;2023-02-15T11:47:28;105.47;;;11.03;;
3700;SDS011;1866;48.374;10.766;2023-02-15T11:49:57;104.77;;;11.87;;
3700;SDS011;1866;48.374;10.766;2023-02-15T11:52:26;108.23;;;11.30;;
3700;SDS011;1866;48.374;10.766;2023-02-15T11:54:53;104.13;;;11.20;;
3700;SDS011;1866;48.374;10.766;2023-02-15T11:57:23;107.30;;;12.37;;
3700;SDS011;1866;48.374;10.766;2023-02-15T11:59:56;103.87;;;11.27;;
3700;SDS011;1866;48.374;10.766;2023-02-15T12:02:29;105.40;;;10.90;;
3700;SDS011;1866;48.374;10.766;2023-02-15T12:05:01;103.77;;;11.20;;
3700;SDS011;1866;48.374;10.766;2023-02-15T12:07:34;106.50;;;11.80;;
3700;SDS011;1866;48.374;10.766;2023-02-15T12:10:05;107.73;;;12.27;;
3700;SDS011;1866;48.374;10.766;2023-02-15T12:12:43;106.07;;;11.87;;
3700;SDS011;1866;48.374;10.766;2023-02-15T12:15:11;110.60;;;12.30;;
3700;SDS011;1866;48.374;10.766;2023-02-15T12:17:39;103.70;;;11.00;;
3700;SDS011;1866;48.374;10.766;2023-02-15T12:20:22;102.90;;;10.47;;
3700;SDS011;1866;48.374;10.766;2023-02-15T12:22:54;106.70;;;11.30;;
3700;SDS011;1866;48.374;10.766;2023-02-15T12:25:32;109.20;;;11.63;;
3700;SDS011;1866;48.374;10.766;2023-02-15T12:28:02;104.70;;;10.97;;
3700;SDS011;1866;48.374;10.766;2023-02-15T12:30:31;107.97;;;11.10;;
3700;SDS011;1866;48.374;10.766;2023-02-15T12:33:03;107.90;;;12.30;;
3700;SDS011;1866;48.374;10.766;2023-02-15T12:35:41;107.27;;;12.20;;
3700;SDS011;1866;48.374;10.766;2023-02-15T12:38:19;111.03;;;12.53;;
3700;SDS011;1866;48.374;10.766;2023-02-15T12:40:56;105.03;;;11.20;;
3700;SDS011;1866;48.374;10.766;2023-02-15T12:43:25;108.83;;;11.97;;
3700;SDS011;1866;48.374;10.766;2023-02-15T12:45:53;109.63;;;12.17;;
3700;SDS011;1866;48.374;10.766;2023-02-15T12:48:46;111.20;;;12.83;;
3700;SDS011;1866;48.374;10.766;2023-02-15T12:51:15;107.20;;;12.57;;
3700;SDS011;1866;48.374;10.766;2023-02-15T12:53:42;109.70;;;12.07;;
3700;SDS011;1866;48.374;10.766;2023-02-15T12:56:09;104.57;;;11.97;;
3700;SDS011;1866;48.374;10.766;2023-02-15T12:58:37;110.73;;;11.13;;
3700;SDS011;1866;48.374;10.766;2023-02-15T13:01:10;107.67;;;12.20;;
3700;SDS011;1866;48.374;10.766;2023-02-15T13:03:50;108.60;;;12.50;;
3700;SDS011;1866;48.374;10.766;2023-02-15T13:06:25;107.13;;;12.33;;
3700;SDS011;1866;48.374;10.766;2023-02-15T13:08:53;105.37;;;11.40;;
3700;SDS011;1866;48.374;10.766;2023-02-15T13:11:25;109.27;;;11.23;;
3700;SDS011;1866;48.374;10.766;2023-02-15T13:13:59;106.93;;;11.00;;
3700;SDS011;1866;48.374;10.766;2023-02-15T13:16:29;109.60;;;12.33;;
3700;SDS011;1866;48.374;10.766;2023-02-15T13:18:58;115.50;;;12.47;;
3700;SDS011;1866;48.374;10.766;2023-02-15T13:21:32;110.40;;;12.40;;
3700;SDS011;1866;48.374;10.766;2023-02-15T13:24:04;110.17;;;12.10;;
3700;SDS011;1866;48.374;10.766;2023-02-15T13:26:34;118.97;;;14.67;;
3700;SDS011;1866;48.374;10.766;2023-02-15T13:29:04;109.43;;;11.53;;
3700;SDS011;1866;48.374;10.766;2023-02-15T13:31:34;111.47;;;13.03;;
3700;SDS011;1866;48.374;10.766;2023-02-15T13:34:03;108.97;;;12.77;;
3700;SDS011;1866;48.374;10.766;2023-02-15T13:36:41;108.30;;;11.00;;
3700;SDS011;1866;48.374;10.766;2023-02-15T13:39:22;111.73;;;12.07;;
3700;SDS011;1866;48.374;10.766;2023-02-15T13:41:56;109.83;;;11.97;;
3700;SDS011;1866;48.374;10.766;2023-02-15T13:44:47;115.17;;;12.60;;
3700;SDS011;1866;48.374;10.766;2023-02-15T13:47:32;112.13;;;11.03;;
3700;SDS011;1866;48.374;10.766;2023-02-15T13:50:17;110.60;;;11.80;;
3700;SDS011;1866;48.374;10.766;2023-02-15T13:52:58;110.90;;;12.50;;
3700;SDS011;1866;48.374;10.766;2023-02-15T13:55:37;110.83;;;12.47;;
3700;SDS011;1866;48.374;10.766;2023-02-15T13:58:21;116.37;;;13.50;;
3700;SDS011;1866;48.374;10.766;2023-02-15T14:01:08;111.70;;;12.07;;
3700;SDS011;1866;48.374;10.766;2023-02-15T14:03:55;114.63;;;13.07;;
3700;SDS011;1866;48.374;10.766;2023-02-15T14:06:52;114.23;;;12.37;;
3700;SDS011;1866;48.374;10.766;2023-02-15T14:09:37;111.97;;;13.57;;
3700;SDS011;1866;48.374;10.766;2023-02-15T14:12:21;112.07;;;12.70;;
3700;SDS011;1866;48.374;10.766;2023-02-15T14:15:07;118.10;;;13.43;;
3700;SDS011;1866;48.374;10.766;2023-02-15T14:17:47;117.40;;;13.50;;
3700;SDS011;1866;48.374;10.766;2023-02-15T14:20:22;110.67;;;11.70;;
3700;SDS011;1866;48.374;10.766;2023-02-15T14:22:58;115.10;;;12.83;;
3700;SDS011;1866;48.374;10.766;2023-02-15T14:25:38;112.70;;;12.53;;
3700;SDS011;1866;48.374;10.766;2023-02-15T14:28:09;111.50;;;12.50;;
3700;SDS011;1866;48.374;10.766;2023-02-15T14:30:41;121.07;;;12.83;;
3700;SDS011;1866;48.374;10.766;2023-02-15T14:33:18;117.10;;;13.10;;
3700;SDS011;1866;48.374;10.766;2023-02-15T14:35:54;112.40;;;13.10;;
3700;SDS011;1866;48.374;10.766;2023-02-15T14:38:27;113.97;;;13.43;;
3700;SDS011;1866;48.374;10.766;2023-02-15T14:41:07;111.90;;;13.07;;
3700;SDS011;1866;48.374;10.766;2023-02-15T14:43:42;113.97;;;13.30;;
3700;SDS011;1866;48.374;10.766;2023-02-15T14:46:18;114.60;;;13.33;;
3700;SDS011;1866;48.374;10.766;2023-02-15T14:48:53;111.70;;;13.63;;
3700;SDS011;1866;48.374;10.766;2023-02-15T14:57:25;114.37;;;13.50;;
3700;SDS011;1866;48.374;10.766;2023-02-15T14:59:55;113.30;;;12.63;;
3700;SDS011;1866;48.374;10.766;2023-02-15T15:02:24;112.23;;;12.70;;